Mc Donald, Tennessee
Current Conditions -  °F | °C
As of 9:53 AM on Friday 31 Oct 2014 (Local Time) from KCHA Reporting Station
Broken Clouds Broken Clouds  
Wind Chill: 52°   Ceiling: 9000
Heat Index: 52°   Visibility: 10mi
Dew Point: 43°   Wind: 6mph
Humidity: 71%   Direction: 280°W
Pressure: 30"   Gusts: NA
Location:  35.0848°N, 84.9886°W
Report Text: KCHA 311353Z 28005KT 10SM SCT075 BKN090 BKN110 11/06 A3000 RMK AO2 SLP157 T01110061
Loading
Personal Weather Stations






























Interactive Weather Map
Tropical Storm Tracking
New forecast layout! Learn more

10-Day Weather Forecast

Advertisements
Track Severe Weather on mobile